Time;durP1;ratioP1;P1;durP2;ratioP2;P2;SDS_P1;SDS_P2;PMS_P1;PMS_P2;Temp;Humidity;BMP_temperature;BMP_pressure;BME280_temperature;BME280_humidity;BME280_pressure;Samples;Min_cycle;Max_cycle;Signal;HPM_P1;HPM_P2
2023/12/12 00:01:45;;;;;;;8.93;2.03;;;6.10;99.90;;;;;;5163737;27;20038;-79
2023/12/12 00:04:11;;;;;;;6.25;1.75;;;6.40;99.90;;;;;;5161862;27;20043;-87
2023/12/12 00:06:36;;;;;;;11.98;2.05;;;6.10;99.90;;;;;;5154599;27;20130;-79
2023/12/12 00:09:02;;;;;;;13.27;2.00;;;6.10;99.90;;;;;;5161784;27;20409;-82
2023/12/12 00:11:28;;;;;;;7.70;1.90;;;6.30;99.90;;;;;;5161732;27;20379;-79
2023/12/12 00:13:53;;;;;;;10.43;2.10;;;6.50;99.90;;;;;;5153254;27;20042;-84
2023/12/12 00:16:19;;;;;;;13.40;1.90;;;5.90;99.90;;;;;;5142729;27;20077;-86
2023/12/12 00:18:45;;;;;;;12.02;2.05;;;6.50;99.90;;;;;;5152594;27;20537;-81
2023/12/12 00:21:10;;;;;;;7.20;2.00;;;5.90;99.90;;;;;;5144732;27;20053;-82
2023/12/12 00:23:36;;;;;;;9.70;1.90;;;6.00;99.90;;;;;;5158772;27;20501;-80
2023/12/12 00:26:01;;;;;;;10.95;2.67;;;5.80;99.90;;;;;;5142407;27;20050;-80
2023/12/12 00:28:27;;;;;;;6.53;1.85;;;5.80;99.90;;;;;;5142645;27;20374;-80
2023/12/12 00:30:53;;;;;;;9.15;1.88;;;5.70;99.90;;;;;;5161438;27;20365;-90
2023/12/12 00:33:19;;;;;;;8.98;2.28;;;5.60;99.90;;;;;;5143296;27;20050;-77
2023/12/12 00:35:44;;;;;;;8.18;1.73;;;6.00;99.90;;;;;;5152335;27;20087;-85
2023/12/12 00:38:10;;;;;;;7.15;2.00;;;6.30;99.90;;;;;;5169820;27;20042;-85
2023/12/12 00:40:35;;;;;;;5.15;1.85;;;5.60;99.90;;;;;;5161158;27;20099;-82
2023/12/12 00:43:01;;;;;;;11.02;2.15;;;5.60;99.90;;;;;;5152139;27;20374;-83
2023/12/12 00:45:27;;;;;;;8.73;1.50;;;6.00;99.90;;;;;;5160338;27;20031;-81
2023/12/12 00:47:53;;;;;;;10.20;2.03;;;5.50;99.90;;;;;;5156752;27;20041;-85
2023/12/12 00:50:18;;;;;;;6.63;2.00;;;6.10;99.90;;;;;;5164401;27;20081;-88
2023/12/12 00:52:44;;;;;;;7.40;1.85;;;5.70;99.90;;;;;;5162201;27;20500;-82
2023/12/12 00:55:10;;;;;;;5.75;1.77;;;5.30;99.90;;;;;;5160690;27;20107;-80
2023/12/12 00:57:35;;;;;;;9.40;2.40;;;5.20;99.90;;;;;;5152518;27;20038;-78
2023/12/12 01:00:01;;;;;;;5.63;1.88;;;5.40;99.90;;;;;;5160830;27;20114;-84
2023/12/12 01:02:26;;;;;;;10.07;2.30;;;5.10;99.90;;;;;;5152375;27;20445;-79
2023/12/12 01:04:53;;;;;;;12.13;1.85;;;5.10;99.90;;;;;;5144387;27;20053;-80
2023/12/12 01:07:19;;;;;;;10.10;2.00;;;5.10;99.90;;;;;;5164042;27;20392;-85
2023/12/12 01:09:45;;;;;;;7.53;2.00;;;5.00;99.90;;;;;;5164170;27;20046;-82
2023/12/12 01:12:11;;;;;;;10.15;2.28;;;4.90;99.90;;;;;;5153658;27;20060;-89
2023/12/12 01:14:37;;;;;;;6.35;1.92;;;4.90;99.90;;;;;;5140470;27;20053;-80
2023/12/12 01:17:06;;;;;;;6.47;2.30;;;4.80;99.90;;;;;;5162376;27;20503;-83
2023/12/12 01:19:31;;;;;;;11.02;2.42;;;4.80;99.90;;;;;;5142401;27;20038;-84
2023/12/12 01:21:57;;;;;;;9.63;2.13;;;4.80;99.90;;;;;;5141739;27;20413;-79
2023/12/12 01:24:23;;;;;;;7.85;2.20;;;4.70;99.90;;;;;;5136679;27;20133;-91
2023/12/12 01:26:48;;;;;;;8.32;2.28;;;4.70;99.90;;;;;;5145709;27;20052;-86
2023/12/12 01:29:18;;;;;;;7.78;2.20;;;4.80;99.90;;;;;;5139855;27;20081;-85
2023/12/12 01:31:43;;;;;;;5.93;1.65;;;4.60;99.90;;;;;;5157135;27;20129;-92
2023/12/12 01:34:10;;;;;;;9.20;1.95;;;4.50;99.90;;;;;;5155904;27;20126;-83
2023/12/12 01:36:35;;;;;;;7.05;2.33;;;4.50;99.90;;;;;;5146959;27;20038;-86
2023/12/12 01:39:01;;;;;;;6.18;1.90;;;4.50;99.90;;;;;;5168520;27;20053;-82
2023/12/12 01:41:27;;;;;;;15.20;2.42;;;4.40;99.90;;;;;;5157115;27;20051;-80
2023/12/12 01:43:52;;;;;;;8.05;2.15;;;4.40;99.90;;;;;;5146394;27;20435;-82
2023/12/12 01:46:20;;;;;;;6.88;1.83;;;4.30;99.90;;;;;;5164553;27;20046;-79
2023/12/12 01:48:47;;;;;;;5.85;2.15;;;4.30;99.90;;;;;;5167488;27;20556;-85
2023/12/12 01:51:13;;;;;;;9.73;2.10;;;4.30;99.90;;;;;;5142636;27;20074;-88
2023/12/12 01:53:43;;;;;;;5.72;2.20;;;4.30;99.90;;;;;;5146183;27;20050;-87
2023/12/12 01:56:10;;;;;;;12.93;2.28;;;4.20;99.90;;;;;;5164323;27;20509;-85
2023/12/12 01:58:37;;;;;;;14.45;1.85;;;4.20;99.90;;;;;;5140633;27;20126;-84
2023/12/12 02:01:03;;;;;;;14.00;2.00;;;4.20;99.90;;;;;;5145742;27;20046;-87
2023/12/12 02:03:30;;;;;;;8.50;2.03;;;4.50;99.90;;;;;;5145346;27;20107;-80
2023/12/12 02:05:58;;;;;;;10.18;2.10;;;4.10;99.90;;;;;;5166229;27;20205;-79
2023/12/12 02:08:26;;;;;;;4.80;1.90;;;4.10;99.90;;;;;;5161390;27;20062;-92
2023/12/12 02:10:52;;;;;;;9.60;2.83;;;4.10;99.90;;;;;;5158464;27;20094;-85
2023/12/12 02:13:18;;;;;;;15.13;2.20;;;4.10;99.90;;;;;;5140999;27;20537;-89
2023/12/12 02:15:44;;;;;;;9.35;1.67;;;4.00;99.90;;;;;;5148508;27;20038;-82
2023/12/12 02:18:13;;;;;;;9.55;2.13;;;3.90;99.90;;;;;;5164698;27;20094;-84
2023/12/12 02:20:40;;;;;;;9.30;2.08;;;3.90;99.90;;;;;;5135992;27;20046;-85
2023/12/12 02:23:05;;;;;;;7.40;2.10;;;4.00;99.90;;;;;;5146333;27;20050;-89
2023/12/12 02:25:31;;;;;;;8.02;2.00;;;3.90;99.90;;;;;;5167213;27;20549;-81
2023/12/12 02:27:59;;;;;;;9.32;1.90;;;3.90;99.90;;;;;;5167066;27;20045;-82
2023/12/12 02:30:25;;;;;;;9.48;1.80;;;3.90;99.90;;;;;;5154450;27;20873;-91
2023/12/12 02:32:50;;;;;;;9.55;2.03;;;4.00;99.90;;;;;;5142316;27;20054;-79
2023/12/12 02:35:16;;;;;;;8.50;1.95;;;3.80;99.90;;;;;;5165269;27;20053;-78
2023/12/12 02:37:42;;;;;;;6.82;2.10;;;3.70;99.90;;;;;;5163277;27;20057;-78
2023/12/12 02:40:08;;;;;;;7.43;1.98;;;3.70;99.90;;;;;;5144588;27;20042;-80
2023/12/12 02:42:34;;;;;;;8.90;2.35;;;3.60;99.90;;;;;;5156925;27;20038;-86
2023/12/12 02:45:00;;;;;;;8.75;2.03;;;3.70;99.90;;;;;;5147677;27;20042;-89
2023/12/12 02:47:25;;;;;;;6.38;1.92;;;3.60;99.90;;;;;;5165632;27;20126;-79
2023/12/12 02:49:51;;;;;;;12.68;2.20;;;3.60;99.90;;;;;;5144051;27;20056;-81
2023/12/12 02:52:17;;;;;;;9.98;2.40;;;3.60;99.90;;;;;;5153838;27;20066;-81
2023/12/12 02:54:42;;;;;;;10.57;1.90;;;3.60;99.90;;;;;;5144270;27;20535;-77
2023/12/12 02:57:08;;;;;;;4.70;1.60;;;3.60;99.90;;;;;;5126574;27;20050;-80
2023/12/12 02:59:34;;;;;;;12.55;2.28;;;3.50;99.90;;;;;;5162994;27;20058;-79
2023/12/12 03:01:59;;;;;;;9.10;2.13;;;3.50;99.90;;;;;;5143364;27;20223;-79
2023/12/12 03:04:25;;;;;;;8.77;1.90;;;3.50;99.90;;;;;;5141555;27;20039;-81
2023/12/12 03:06:51;;;;;;;9.15;2.05;;;3.50;99.90;;;;;;5162312;27;20043;-81
2023/12/12 03:09:17;;;;;;;11.00;1.80;;;3.50;99.90;;;;;;5142400;27;20074;-78
2023/12/12 03:11:42;;;;;;;9.40;2.10;;;3.50;99.90;;;;;;5161271;27;20033;-78
2023/12/12 03:14:09;;;;;;;6.72;1.85;;;3.50;99.90;;;;;;5162138;27;20442;-78
2023/12/12 03:16:34;;;;;;;9.02;2.15;;;3.50;99.90;;;;;;5162083;27;20117;-78
2023/12/12 03:19:00;;;;;;;7.45;1.88;;;3.50;99.90;;;;;;5161952;27;20130;-78
2023/12/12 03:21:25;;;;;;;8.13;2.38;;;3.50;99.90;;;;;;5161731;27;20042;-80
2023/12/12 03:23:51;;;;;;;9.73;2.22;;;3.50;99.90;;;;;;5158547;27;20042;-89
2023/12/12 03:26:17;;;;;;;7.22;2.15;;;3.50;99.90;;;;;;5147206;27;20038;-78
2023/12/12 03:28:42;;;;;;;5.25;2.00;;;3.40;99.90;;;;;;5165669;27;20078;-77
2023/12/12 03:31:08;;;;;;;10.18;2.38;;;3.40;99.90;;;;;;5162532;27;20113;-84
2023/12/12 03:33:34;;;;;;;10.98;2.22;;;3.40;99.90;;;;;;5143127;27;20389;-88
2023/12/12 03:36:00;;;;;;;13.93;2.22;;;4.20;99.90;;;;;;5135033;27;20043;-89
2023/12/12 03:38:25;;;;;;;7.88;1.55;;;3.40;99.90;;;;;;5165023;27;20107;-80
2023/12/12 03:40:51;;;;;;;11.93;2.20;;;3.30;99.90;;;;;;5128884;27;20059;-81
2023/12/12 03:43:17;;;;;;;9.13;2.40;;;3.40;99.90;;;;;;5144339;27;20073;-79
2023/12/12 03:45:43;;;;;;;8.63;2.30;;;3.70;99.90;;;;;;5117295;27;20046;-82
2023/12/12 03:48:09;;;;;;;6.85;1.80;;;3.40;99.90;;;;;;5142899;27;20049;-87
2023/12/12 03:50:36;;;;;;;6.53;1.88;;;3.40;99.90;;;;;;5133751;27;20050;-90
2023/12/12 03:53:01;;;;;;;7.68;1.98;;;3.30;99.90;;;;;;5141084;27;20846;-78
2023/12/12 03:55:27;;;;;;;10.15;2.17;;;3.30;99.90;;;;;;5134985;27;20058;-82
2023/12/12 03:57:52;;;;;;;11.23;2.40;;;3.20;99.90;;;;;;5140151;27;20464;-88
2023/12/12 04:00:18;;;;;;;8.48;2.00;;;3.30;99.90;;;;;;5143387;27;20053;-79
2023/12/12 04:02:44;;;;;;;6.15;1.80;;;3.30;99.90;;;;;;5140224;27;20046;-78
2023/12/12 04:05:09;;;;;;;9.75;2.33;;;3.20;99.90;;;;;;5139188;27;20043;-84
2023/12/12 04:07:37;;;;;;;4.93;1.63;;;3.20;99.90;;;;;;5139596;27;20464;-87
2023/12/12 04:10:04;;;;;;;8.57;1.88;;;3.10;99.90;;;;;;5151573;27;20042;-86
2023/12/12 04:12:29;;;;;;;7.90;2.08;;;3.10;99.90;;;;;;5155584;27;20041;-80
2023/12/12 04:14:55;;;;;;;7.00;1.88;;;3.10;99.90;;;;;;5125703;27;20042;-82
2023/12/12 04:17:21;;;;;;;6.85;1.83;;;3.00;99.90;;;;;;5134091;27;20365;-88
2023/12/12 04:19:47;;;;;;;11.02;2.05;;;3.60;99.90;;;;;;5134329;27;20054;-79
2023/12/12 04:22:12;;;;;;;6.90;1.88;;;3.00;99.90;;;;;;5158350;27;20043;-77
2023/12/12 04:24:38;;;;;;;5.63;2.17;;;3.00;99.90;;;;;;5155627;27;20039;-83
2023/12/12 04:27:04;;;;;;;7.38;1.85;;;3.00;99.90;;;;;;5161126;27;20065;-83
2023/12/12 04:29:29;;;;;;;6.03;2.45;;;3.00;99.90;;;;;;5142766;27;20057;-80
2023/12/12 04:31:56;;;;;;;7.57;2.25;;;2.90;99.90;;;;;;5162175;27;20041;-80
2023/12/12 04:34:21;;;;;;;4.35;1.88;;;2.90;99.90;;;;;;5151779;27;20053;-82
2023/12/12 04:36:47;;;;;;;8.07;2.28;;;2.90;99.90;;;;;;5160860;27;20039;-77
2023/12/12 04:39:19;;;;;;;9.65;2.60;;;3.00;99.90;;;;;;5161026;27;20057;-80
2023/12/12 04:41:45;;;;;;;11.68;2.60;;;3.50;99.90;;;;;;5141477;27;20047;-82
2023/12/12 04:44:11;;;;;;;9.38;2.63;;;3.00;99.90;;;;;;5160555;27;20041;-86
2023/12/12 04:46:36;;;;;;;7.88;2.67;;;3.10;99.90;;;;;;5138488;27;20489;-82
2023/12/12 04:49:03;;;;;;;8.85;2.22;;;3.10;99.90;;;;;;5163848;27;20091;-80
2023/12/12 04:51:29;;;;;;;8.93;2.33;;;3.00;99.90;;;;;;5142606;27;20050;-83
2023/12/12 04:53:55;;;;;;;12.68;2.90;;;3.20;99.90;;;;;;5151705;27;20039;-83
2023/12/12 04:56:20;;;;;;;10.85;2.80;;;3.10;99.90;;;;;;5155409;27;20046;-83
2023/12/12 04:58:46;;;;;;;10.20;2.90;;;3.20;99.90;;;;;;5161104;27;20717;-79
2023/12/12 05:01:15;;;;;;;8.85;2.90;;;3.30;99.90;;;;;;5159310;27;20079;-81
2023/12/12 05:03:41;;;;;;;6.30;2.50;;;3.20;99.90;;;;;;5154716;27;20053;-78
2023/12/12 05:06:10;;;;;;;14.35;2.50;;;3.30;99.90;;;;;;5158728;27;20400;-77
2023/12/12 05:08:36;;;;;;;8.93;2.22;;;3.30;99.90;;;;;;5137584;27;20066;-77
2023/12/12 05:11:02;;;;;;;5.43;2.58;;;3.20;99.90;;;;;;5135609;27;20405;-77
2023/12/12 05:13:27;;;;;;;8.27;2.70;;;3.20;99.90;;;;;;5139300;27;20030;-87
2023/12/12 05:15:53;;;;;;;11.85;3.00;;;3.30;99.90;;;;;;5140553;27;20042;-88
2023/12/12 05:18:20;;;;;;;8.85;2.75;;;3.30;99.90;;;;;;5149347;27;20050;-83
2023/12/12 05:20:45;;;;;;;8.10;3.08;;;3.30;99.90;;;;;;5131547;27;20034;-84
2023/12/12 05:23:11;;;;;;;9.55;2.75;;;3.40;99.90;;;;;;5146347;27;20038;-84
2023/12/12 05:25:37;;;;;;;6.60;2.78;;;3.40;99.90;;;;;;5137002;27;20046;-82
2023/12/12 05:28:03;;;;;;;11.23;2.70;;;3.30;99.90;;;;;;5148228;27;20073;-88
2023/12/12 05:30:29;;;;;;;11.73;3.10;;;3.30;99.90;;;;;;5142941;27;20039;-88
2023/12/12 05:32:54;;;;;;;11.38;3.38;;;3.30;99.90;;;;;;5145844;27;20643;-81
2023/12/12 05:35:20;;;;;;;10.73;2.75;;;3.40;99.90;;;;;;5137347;27;20042;-82
2023/12/12 05:37:46;;;;;;;10.52;3.60;;;3.40;99.90;;;;;;5163945;27;20038;-84
2023/12/12 05:40:14;;;;;;;11.68;3.47;;;3.50;99.90;;;;;;5158078;27;20039;-84
2023/12/12 05:42:41;;;;;;;9.32;3.63;;;3.50;99.90;;;;;;5144625;27;20049;-89
2023/12/12 05:45:07;;;;;;;7.43;3.67;;;3.40;99.90;;;;;;5155119;27;20046;-85
2023/12/12 05:47:33;;;;;;;10.02;4.28;;;3.30;99.90;;;;;;5141273;27;20063;-80
2023/12/12 05:49:58;;;;;;;12.25;3.03;;;3.40;99.90;;;;;;5167685;27;20030;-80
2023/12/12 05:52:25;;;;;;;10.52;3.28;;;3.30;99.90;;;;;;5146780;27;20042;-90
2023/12/12 05:54:51;;;;;;;10.25;3.40;;;3.30;99.90;;;;;;5141633;27;20058;-79
2023/12/12 05:57:17;;;;;;;11.13;4.00;;;3.30;99.90;;;;;;5155332;27;20047;-79
2023/12/12 05:59:43;;;;;;;9.27;4.20;;;3.30;99.90;;;;;;5145306;27;20115;-80
2023/12/12 06:02:08;;;;;;;10.60;4.20;;;3.30;99.90;;;;;;5155426;27;20045;-86
2023/12/12 06:04:35;;;;;;;10.18;4.10;;;3.30;99.90;;;;;;5165998;27;20099;-84
2023/12/12 06:07:02;;;;;;;9.82;3.97;;;3.20;99.90;;;;;;5143002;27;20065;-80
2023/12/12 06:09:28;;;;;;;10.38;4.20;;;3.30;99.90;;;;;;5163418;27;20094;-84
2023/12/12 06:11:53;;;;;;;7.50;3.67;;;3.30;99.90;;;;;;5163776;27;20380;-84
2023/12/12 06:14:19;;;;;;;10.52;4.80;;;3.20;99.90;;;;;;5135502;27;20035;-85
2023/12/12 06:16:45;;;;;;;14.32;5.97;;;3.30;99.90;;;;;;5163625;27;20117;-82
2023/12/12 06:19:11;;;;;;;13.70;6.40;;;3.40;99.90;;;;;;5167862;27;20146;-81
2023/12/12 06:21:36;;;;;;;15.10;5.53;;;3.30;99.90;;;;;;5147813;27;20061;-85
2023/12/12 06:24:03;;;;;;;12.98;5.93;;;3.20;99.90;;;;;;5137515;27;20047;-79
2023/12/12 06:26:30;;;;;;;11.05;4.47;;;3.20;99.90;;;;;;5161794;27;20042;-81
2023/12/12 06:28:56;;;;;;;9.10;5.10;;;3.20;99.90;;;;;;5156436;27;20042;-87
2023/12/12 06:31:23;;;;;;;9.50;5.28;;;3.20;99.90;;;;;;5168661;27;20038;-90
2023/12/12 06:33:49;;;;;;;11.35;5.32;;;3.30;99.90;;;;;;5142738;27;20099;-79
2023/12/12 06:36:15;;;;;;;14.45;5.03;;;3.20;99.90;;;;;;5162427;27;20043;-81
2023/12/12 06:38:42;;;;;;;6.63;4.35;;;3.20;99.90;;;;;;5136136;27;20050;-78
2023/12/12 06:41:09;;;;;;;8.35;4.78;;;3.70;99.90;;;;;;5136320;27;20065;-78
2023/12/12 06:43:35;;;;;;;7.90;4.88;;;3.20;99.90;;;;;;5142716;27;20042;-87
2023/12/12 06:46:00;;;;;;;17.63;4.78;;;3.10;99.90;;;;;;5163131;27;20087;-89
2023/12/12 06:48:26;;;;;;;21.20;5.60;;;3.20;99.90;;;;;;5136334;27;20052;-81
2023/12/12 06:50:52;;;;;;;26.13;6.57;;;3.20;99.90;;;;;;5154673;27;20038;-79
2023/12/12 06:53:18;;;;;;;51.42;7.65;;;3.20;99.90;;;;;;5145496;27;20054;-85
2023/12/12 06:55:44;;;;;;;14.40;5.85;;;3.10;99.90;;;;;;5158984;27;20042;-88
2023/12/12 06:58:11;;;;;;;14.80;5.75;;;3.20;99.90;;;;;;5162917;27;20045;-80
2023/12/12 07:00:39;;;;;;;16.88;5.65;;;3.20;99.90;;;;;;5157726;27;20051;-78
2023/12/12 07:03:05;;;;;;;13.82;5.80;;;3.20;99.90;;;;;;5153978;27;20046;-79
2023/12/12 07:05:31;;;;;;;14.50;6.18;;;3.20;99.90;;;;;;5148079;27;20111;-94
2023/12/12 07:07:57;;;;;;;18.20;6.18;;;3.30;99.90;;;;;;5167652;27;20038;-92
2023/12/12 07:10:22;;;;;;;14.55;6.72;;;3.20;99.90;;;;;;5158977;27;20054;-78
2023/12/12 07:12:48;;;;;;;12.60;7.75;;;3.30;99.90;;;;;;5163201;27;20092;-86
2023/12/12 07:15:14;;;;;;;15.10;8.20;;;3.30;99.90;;;;;;5118113;27;20094;-87
2023/12/12 07:17:40;;;;;;;14.40;8.23;;;3.40;99.90;;;;;;5147530;27;20126;-79
2023/12/12 07:20:06;;;;;;;13.65;7.20;;;3.80;99.90;;;;;;5147633;27;20085;-80
2023/12/12 07:22:32;;;;;;;43.70;8.43;;;3.30;99.90;;;;;;5154959;27;20047;-89
2023/12/12 07:24:58;;;;;;;13.50;7.75;;;3.50;99.90;;;;;;5126701;27;20059;-82
2023/12/12 07:27:23;;;;;;;118.20;10.05;;;3.40;99.90;;;;;;5163633;27;20038;-80
2023/12/12 07:29:49;;;;;;;82.15;9.32;;;3.50;99.90;;;;;;5163880;27;20042;-80
2023/12/12 07:32:15;;;;;;;34.58;9.25;;;3.50;99.90;;;;;;5143443;27;20053;-78
2023/12/12 07:34:41;;;;;;;125.93;10.73;;;3.60;99.90;;;;;;5161852;27;20042;-86
2023/12/12 07:37:07;;;;;;;29.95;9.82;;;3.50;99.90;;;;;;5146807;27;20046;-77
2023/12/12 07:39:32;;;;;;;41.47;9.60;;;3.60;99.90;;;;;;5166002;27;20393;-76
2023/12/12 07:41:58;;;;;;;15.57;9.15;;;3.70;99.90;;;;;;5138126;27;20066;-87
2023/12/12 07:44:23;;;;;;;24.25;9.60;;;3.70;99.90;;;;;;5157473;27;20457;-89
2023/12/12 07:46:49;;;;;;;57.92;11.07;;;3.70;99.90;;;;;;5159822;27;20038;-79
2023/12/12 07:49:15;;;;;;;19.27;10.45;;;3.70;99.90;;;;;;5168818;27;20062;-94
2023/12/12 07:51:41;;;;;;;44.22;12.15;;;3.80;99.90;;;;;;5158662;27;20038;-80
2023/12/12 07:54:06;;;;;;;21.35;11.63;;;3.90;99.90;;;;;;5162875;27;20046;-79
2023/12/12 07:56:32;;;;;;;25.40;11.40;;;3.90;99.90;;;;;;5134192;27;20058;-81
2023/12/12 07:58:58;;;;;;;22.25;11.93;;;3.80;99.90;;;;;;5159889;27;20070;-84
2023/12/12 08:01:24;;;;;;;25.15;12.52;;;4.20;99.90;;;;;;5143100;27;20046;-83
2023/12/12 08:03:51;;;;;;;43.47;13.25;;;3.90;99.90;;;;;;5153018;27;20062;-87
2023/12/12 08:06:17;;;;;;;24.60;12.13;;;3.90;99.90;;;;;;5132310;27;20084;-77
2023/12/12 08:08:42;;;;;;;98.50;13.65;;;4.10;99.90;;;;;;5116175;27;20059;-78
2023/12/12 08:11:15;;;;;;;26.80;13.02;;;4.00;99.90;;;;;;5143001;27;20074;-77
2023/12/12 08:13:41;;;;;;;42.22;13.65;;;4.00;99.90;;;;;;5135700;27;20039;-91
2023/12/12 08:16:07;;;;;;;47.05;13.13;;;4.10;99.90;;;;;;5164871;27;20667;-79
2023/12/12 08:18:32;;;;;;;39.22;13.52;;;4.10;99.90;;;;;;5164689;27;20177;-77
2023/12/12 08:20:58;;;;;;;26.25;12.82;;;4.10;99.90;;;;;;5160820;27;20062;-82
2023/12/12 08:23:24;;;;;;;29.40;13.07;;;4.20;99.90;;;;;;5116201;27;20070;-79
2023/12/12 08:25:49;;;;;;;132.60;17.38;;;4.30;99.90;;;;;;5127188;27;20086;-76
2023/12/12 08:28:15;;;;;;;22.10;13.02;;;4.20;99.90;;;;;;5129338;27;20071;-77
2023/12/12 08:30:41;;;;;;;33.92;14.88;;;4.30;99.90;;;;;;5150375;27;20143;-82
2023/12/12 08:33:07;;;;;;;28.15;14.88;;;4.40;99.90;;;;;;5134831;27;20058;-80
2023/12/12 08:35:32;;;;;;;27.58;13.75;;;4.40;99.90;;;;;;5151417;27;20047;-84
2023/12/12 08:37:59;;;;;;;27.20;14.02;;;4.40;99.90;;;;;;5144802;27;20031;-86
2023/12/12 08:40:24;;;;;;;102.93;15.07;;;4.30;99.90;;;;;;5156450;27;20121;-82
2023/12/12 08:42:50;;;;;;;66.47;13.65;;;4.40;99.90;;;;;;5164005;27;20449;-87
2023/12/12 08:45:16;;;;;;;42.40;14.65;;;4.90;99.90;;;;;;5161570;27;20042;-79
2023/12/12 08:47:41;;;;;;;67.18;15.00;;;4.30;99.90;;;;;;5161149;27;20039;-85
2023/12/12 08:50:09;;;;;;;62.53;14.55;;;5.00;99.90;;;;;;5129307;27;20433;-83
2023/12/12 08:52:35;;;;;;;68.45;15.65;;;4.50;99.90;;;;;;5155200;27;20053;-81
2023/12/12 08:55:03;;;;;;;43.35;15.10;;;4.50;99.90;;;;;;5144434;27;20086;-78
2023/12/12 08:57:30;;;;;;;80.40;16.00;;;5.00;99.90;;;;;;5161178;27;20042;-78
2023/12/12 08:59:55;;;;;;;70.20;15.43;;;4.50;99.90;;;;;;5124102;27;20049;-85
2023/12/12 09:02:21;;;;;;;57.13;15.65;;;4.50;99.90;;;;;;5160507;27;20077;-78
2023/12/12 09:04:47;;;;;;;32.05;15.70;;;4.60;99.90;;;;;;5158362;27;20121;-81
2023/12/12 09:07:13;;;;;;;48.25;14.95;;;5.00;99.90;;;;;;5139746;27;20050;-77
2023/12/12 09:09:39;;;;;;;71.85;16.20;;;4.60;99.90;;;;;;5142838;27;20438;-84
2023/12/12 09:12:05;;;;;;;122.00;18.63;;;4.50;99.90;;;;;;5141934;27;20047;-85
2023/12/12 09:14:31;;;;;;;42.55;15.40;;;4.70;99.90;;;;;;5137068;27;20397;-89
2023/12/12 09:16:56;;;;;;;97.13;17.33;;;4.70;99.90;;;;;;5147207;27;20047;-80
2023/12/12 09:19:22;;;;;;;97.57;18.00;;;4.70;99.90;;;;;;5123099;27;20056;-79
2023/12/12 09:21:49;;;;;;;95.65;17.23;;;4.60;99.90;;;;;;5161840;27;20114;-83
2023/12/12 09:24:14;;;;;;;145.20;18.52;;;4.60;99.90;;;;;;5141305;27;20100;-76
2023/12/12 09:26:40;;;;;;;51.28;17.52;;;4.70;99.90;;;;;;5151289;27;20035;-86
2023/12/12 09:29:06;;;;;;;91.93;18.40;;;4.80;99.90;;;;;;5160343;27;20138;-77
2023/12/12 09:31:33;;;;;;;109.57;20.05;;;4.80;99.90;;;;;;5116825;27;20489;-78
2023/12/12 09:33:59;;;;;;;107.43;18.80;;;4.70;99.90;;;;;;5154607;27;20110;-84
2023/12/12 09:36:24;;;;;;;99.35;18.35;;;4.70;99.90;;;;;;5131788;27;20475;-80
2023/12/12 09:38:50;;;;;;;35.80;18.38;;;4.80;99.90;;;;;;5128242;27;20107;-86
2023/12/12 09:41:20;;;;;;;66.13;21.33;;;4.80;99.90;;;;;;5160206;27;20039;-89
2023/12/12 09:43:48;;;;;;;138.38;23.70;;;5.50;99.90;;;;;;5150097;27;20050;-87
2023/12/12 09:46:15;;;;;;;115.90;22.00;;;4.90;99.90;;;;;;5154073;27;20047;-86
2023/12/12 09:48:42;;;;;;;43.15;20.60;;;5.00;99.90;;;;;;5162443;27;20038;-81
2023/12/12 09:51:08;;;;;;;34.95;19.45;;;5.00;99.90;;;;;;5159319;27;20396;-83
2023/12/12 09:53:36;;;;;;;59.10;21.25;;;4.90;99.90;;;;;;5140763;27;20031;-83
2023/12/12 09:56:03;;;;;;;81.20;20.35;;;5.00;99.90;;;;;;5140060;27;20592;-78
2023/12/12 09:58:29;;;;;;;63.50;20.13;;;5.00;99.90;;;;;;5164499;27;20035;-84
2023/12/12 10:00:56;;;;;;;97.93;22.73;;;5.00;99.90;;;;;;5166660;27;20095;-88
2023/12/12 10:03:22;;;;;;;62.53;22.45;;;5.10;99.90;;;;;;5130206;27;20509;-78
2023/12/12 10:05:53;;;;;;;50.00;23.17;;;5.10;99.90;;;;;;5163537;27;20388;-87
2023/12/12 10:08:19;;;;;;;92.10;20.35;;;5.10;99.90;;;;;;5144413;27;20082;-88
2023/12/12 10:10:44;;;;;;;61.58;21.05;;;5.20;99.90;;;;;;5146608;27;20073;-81
2023/12/12 10:13:10;;;;;;;55.97;20.75;;;5.10;99.90;;;;;;5166136;27;20492;-81
2023/12/12 10:15:36;;;;;;;73.43;22.83;;;5.20;99.90;;;;;;5165106;27;20050;-78
2023/12/12 10:18:02;;;;;;;75.13;22.10;;;5.10;99.90;;;;;;5163547;27;20050;-86
2023/12/12 10:20:30;;;;;;;46.05;20.88;;;5.10;99.90;;;;;;5163482;27;20034;-76
2023/12/12 10:23:00;;;;;;;58.90;21.80;;;5.20;99.90;;;;;;5146345;27;20133;-83
2023/12/12 10:25:28;;;;;;;80.35;20.95;;;5.30;99.90;;;;;;5146672;27;20058;-80
2023/12/12 10:27:55;;;;;;;58.58;22.30;;;5.20;99.90;;;;;;5163673;27;20046;-76
2023/12/12 10:30:21;;;;;;;49.10;20.83;;;5.20;99.90;;;;;;5143593;27;20499;-79
2023/12/12 10:32:51;;;;;;;42.90;20.70;;;5.20;99.90;;;;;;5162613;27;20121;-76
2023/12/12 10:35:18;;;;;;;45.53;20.85;;;5.30;99.90;;;;;;5146984;27;20078;-78
2023/12/12 10:37:44;;;;;;;63.55;20.60;;;5.40;99.90;;;;;;5165947;27;20061;-79
2023/12/12 10:40:23;;;;;;;43.50;20.15;;;5.40;99.90;;;;;;5163351;27;20129;-77
2023/12/12 10:42:49;;;;;;;37.63;20.02;;;5.30;99.90;;;;;;5162047;27;20043;-77
2023/12/12 10:45:16;;;;;;;59.17;22.02;;;5.80;99.90;;;;;;5164491;27;20546;-77
2023/12/12 10:47:46;;;;;;;47.03;21.55;;;5.60;99.90;;;;;;5165989;27;20441;-77
2023/12/12 10:50:14;;;;;;;38.08;20.63;;;5.40;99.90;;;;;;5164413;27;20157;-79
2023/12/12 10:52:40;;;;;;;35.50;19.27;;;5.30;99.90;;;;;;5162276;27;20068;-78
2023/12/12 10:55:09;;;;;;;43.25;21.15;;;5.50;99.90;;;;;;5160803;27;20055;-76
2023/12/12 10:57:37;;;;;;;35.05;18.67;;;5.40;99.90;;;;;;5147824;27;20039;-78
2023/12/12 11:00:11;;;;;;;35.80;19.35;;;5.90;99.90;;;;;;5165711;27;20050;-79
2023/12/12 11:02:38;;;;;;;36.92;20.42;;;5.40;99.90;;;;;;5151987;27;20047;-76
2023/12/12 11:05:05;;;;;;;37.33;19.83;;;5.50;99.90;;;;;;5150726;27;20081;-85
2023/12/12 11:07:34;;;;;;;46.28;21.55;;;5.60;99.90;;;;;;5115037;27;20039;-79
2023/12/12 11:10:00;;;;;;;37.50;19.90;;;5.50;99.90;;;;;;5158431;27;20385;-78
2023/12/12 11:12:26;;;;;;;33.92;19.40;;;6.20;99.90;;;;;;5165352;27;20037;-77
2023/12/12 11:14:55;;;;;;;47.10;22.33;;;5.90;99.90;;;;;;5156439;27;20382;-79
2023/12/12 11:17:21;;;;;;;35.97;20.05;;;5.60;99.90;;;;;;5165341;27;20038;-81
2023/12/12 11:19:46;;;;;;;38.15;21.65;;;5.60;99.90;;;;;;5163474;27;20046;-78
2023/12/12 11:22:41;;;;;;;37.22;19.52;;;5.60;99.90;;;;;;5161946;27;20551;-79
2023/12/12 11:25:11;;;;;;;37.75;20.88;;;5.70;99.90;;;;;;5145233;27;20043;-77
2023/12/12 11:27:41;;;;;;;35.28;19.55;;;5.70;99.90;;;;;;5142989;27;20047;-79
2023/12/12 11:30:09;;;;;;;42.50;21.25;;;5.70;99.90;;;;;;5143413;27;20489;-81
2023/12/12 11:32:35;;;;;;;41.90;19.90;;;5.80;99.90;;;;;;5161666;27;20443;-79
2023/12/12 11:35:06;;;;;;;35.08;19.52;;;5.90;99.90;;;;;;5163004;27;20042;-78
2023/12/12 11:37:42;;;;;;;36.42;20.25;;;5.80;99.90;;;;;;5164374;27;20084;-84
2023/12/12 11:40:11;;;;;;;33.53;19.70;;;5.80;99.90;;;;;;5160572;27;20110;-78
2023/12/12 11:42:40;;;;;;;36.85;21.33;;;6.00;99.90;;;;;;5134285;27;20039;-78
2023/12/12 11:45:06;;;;;;;35.13;19.90;;;5.90;99.90;;;;;;5142414;27;20077;-82
2023/12/12 11:47:32;;;;;;;43.65;20.60;;;6.00;99.90;;;;;;5137648;27;20090;-84
2023/12/12 11:50:18;;;;;;;34.15;20.10;;;6.00;99.90;;;;;;5164293;27;20042;-78
2023/12/12 11:52:47;;;;;;;42.70;20.60;;;5.90;99.90;;;;;;5109537;27;20035;-85
2023/12/12 11:55:29;;;;;;;40.55;21.38;;;6.00;99.90;;;;;;5220691;22;20052;-86
2023/12/12 11:58:02;;;;;;;38.05;20.60;;;5.90;99.90;;;;;;5062733;28;20047;-87
2023/12/12 12:00:31;;;;;;;37.85;20.83;;;6.40;99.90;;;;;;5081110;28;20051;-80
2023/12/12 12:02:57;;;;;;;39.38;21.92;;;6.40;99.90;;;;;;5076666;28;20116;-77
2023/12/12 12:05:23;;;;;;;36.05;20.40;;;6.70;99.90;;;;;;5079376;28;20123;-79
2023/12/12 12:07:48;;;;;;;36.03;19.30;;;6.00;99.90;;;;;;5082327;28;20036;-77
2023/12/12 12:10:15;;;;;;;32.30;18.73;;;6.10;99.90;;;;;;5079886;28;20040;-77
2023/12/12 12:12:50;;;;;;;42.70;22.17;;;6.10;99.90;;;;;;5076078;28;20139;-78
2023/12/12 12:15:16;;;;;;;33.08;19.38;;;6.20;99.90;;;;;;5073711;28;20052;-82
2023/12/12 12:17:42;;;;;;;36.72;20.08;;;6.10;99.90;;;;;;5058324;28;20036;-86
2023/12/12 12:20:08;;;;;;;39.50;20.83;;;6.40;99.90;;;;;;5071208;28;20052;-76
2023/12/12 12:22:38;;;;;;;39.10;22.13;;;6.20;99.90;;;;;;5082215;28;20548;-77
2023/12/12 12:25:06;;;;;;;35.72;21.67;;;6.20;99.90;;;;;;5070661;28;20173;-78
2023/12/12 12:27:33;;;;;;;38.28;21.75;;;6.10;99.90;;;;;;5043788;28;20040;-80
2023/12/12 12:30:06;;;;;;;35.47;20.48;;;6.30;99.90;;;;;;5061946;28;20122;-76
2023/12/12 12:32:35;;;;;;;41.17;21.58;;;6.10;99.90;;;;;;5078052;28;20047;-76
2023/12/12 12:35:08;;;;;;;35.25;20.10;;;6.30;99.90;;;;;;5080098;28;20040;-78
2023/12/12 12:37:36;;;;;;;41.65;22.40;;;5.90;99.90;;;;;;5081430;28;20475;-78
2023/12/12 12:40:06;;;;;;;40.38;23.95;;;6.20;99.90;;;;;;5079292;28;20436;-78
2023/12/12 12:42:38;;;;;;;37.00;22.50;;;6.30;99.90;;;;;;5075967;28;20040;-77